Terminal Aerodrome Forecast
Issued by NWS Duluth, MN

Home | Current Version | Previous Version | Text Only | Print | Product List | Glossary On
Versions: 1 2 3 4 5 6 7 8 9 10 11 12 13 14 15 16 17 18 19 20 21 22 23 24 25
849
FTUS43 KDLH 160529
TAFINL
TAF
KINL 160529Z 1606/1706 16003KT P6SM OVC120
     FM161500 11006KT P6SM VCSH OVC100
     FM161700 11006KT P6SM SHRA OVC080
     FM162200 10006KT 3SM SHRA OVC015
     FM170100 09005KT 4SM -SHRA OVC010
     FM170300 09004KT 4SM -SHRA OVC008=

USA.gov is the U.S. government's official web portal to all federal, state and local government web resources and services.